MA46 weather

Army National Guard Heliport
Milford, Massachusetts, United States

Public forecast

Using degrees Fahrenheit for public forecast. Weather courtesy of forecast.io.

METAR (pilot weather report)

Closest report is North Central State Airport, 12.6 nm (23.3 km) S. Retrieved 2019/09/18 01:56 UTC (15 minutes ago):

KSFZ 180156Z AUTO 00000KT 10SM FEW049 OVC070 13/12 A3019 RMK AO2 SLP168 T01280117

TAF (pilot weather forecast)

Forecast is more than 12 hours old.

Closest forecast is Worcester Regional Airport, 19.2 nm (35.6 km) WNW. Retrieved 2019/09/17 00:22 UTC (1 day ago):

TAF KORH 172320Z 1800/1824 07004KT P6SM SCT050 FM180400 05003KT P6SM FEW030 SCT060 FM180700 02005KT P6SM SCT035 BKN060 FM181500 04009KT P6SM FEW035 SCT060 FM182000 05007KT P6SM SCT200